Time;durP1;ratioP1;P1;durP2;ratioP2;P2;SDS_P1;SDS_P2;PMS_P1;PMS_P2;Temp;Humidity;BMP_temperature;BMP_pressure;BME280_temperature;BME280_humidity;BME280_pressure;Samples;Min_cycle;Max_cycle;Signal;HPM_P1;HPM_P2
2021/05/08 00:00:59;;;;;;;14.57;6.95;;;18.10;80.60;;;;;;5080891;28;20114;-70
2021/05/08 00:03:25;;;;;;;11.48;5.15;;;18.20;80.60;;;;;;5081093;28;20027;-70
2021/05/08 00:05:52;;;;;;;17.30;6.45;;;18.10;80.40;;;;;;5079666;28;20098;-70
2021/05/08 00:08:18;;;;;;;13.02;5.50;;;18.10;80.40;;;;;;5077993;28;20505;-70
2021/05/08 00:10:45;;;;;;;21.50;5.90;;;18.10;80.40;;;;;;5078543;28;20051;-70
2021/05/08 00:13:12;;;;;;;13.13;5.15;;;18.10;80.40;;;;;;5079325;28;20042;-69
2021/05/08 00:15:38;;;;;;;16.23;5.32;;;18.10;80.40;;;;;;5081556;28;20020;-70
2021/05/08 00:18:05;;;;;;;20.95;6.32;;;18.10;80.40;;;;;;5080431;28;20095;-71
2021/05/08 00:20:33;;;;;;;12.95;5.10;;;18.10;80.40;;;;;;5083089;28;20074;-70
2021/05/08 00:22:59;;;;;;;13.20;4.78;;;18.00;80.30;;;;;;5077827;28;20058;-69
2021/05/08 00:25:26;;;;;;;11.85;5.70;;;18.00;80.30;;;;;;5080342;28;20054;-71
2021/05/08 00:27:52;;;;;;;17.65;5.57;;;18.00;80.40;;;;;;5080969;28;20112;-70
2021/05/08 00:30:19;;;;;;;11.45;5.63;;;18.00;80.40;;;;;;5076982;28;20020;-70
2021/05/08 00:32:46;;;;;;;16.20;6.25;;;18.00;80.50;;;;;;5078931;28;20024;-70
2021/05/08 00:35:12;;;;;;;12.88;5.40;;;18.10;80.60;;;;;;5078867;28;20024;-70
2021/05/08 00:37:39;;;;;;;15.48;5.78;;;18.00;80.70;;;;;;5080763;28;20020;-70
2021/05/08 00:40:06;;;;;;;23.58;6.75;;;18.00;80.80;;;;;;5080887;28;20027;-70
2021/05/08 00:42:33;;;;;;;12.55;4.78;;;18.00;80.80;;;;;;5078487;28;20068;-70
2021/05/08 00:44:59;;;;;;;10.27;4.40;;;18.00;80.90;;;;;;5080834;28;20058;-71
2021/05/08 00:47:26;;;;;;;13.15;4.38;;;18.10;81.00;;;;;;5067621;28;20459;-70
2021/05/08 00:49:53;;;;;;;8.95;4.05;;;18.00;81.00;;;;;;5081205;28;20028;-68
2021/05/08 00:52:19;;;;;;;13.82;5.53;;;18.00;81.00;;;;;;5081981;28;20020;-69
2021/05/08 00:54:46;;;;;;;15.85;4.90;;;18.00;81.10;;;;;;5083747;28;20505;-69
2021/05/08 00:57:13;;;;;;;13.68;4.97;;;18.00;81.20;;;;;;5071355;28;20028;-69
2021/05/08 00:59:39;;;;;;;10.82;5.13;;;18.00;81.00;;;;;;5087701;28;20012;-68
2021/05/08 01:02:06;;;;;;;13.65;5.90;;;18.00;81.00;;;;;;5084569;28;20028;-71
2021/05/08 01:04:33;;;;;;;12.45;5.22;;;18.00;80.90;;;;;;5085985;28;20035;-70
2021/05/08 01:07:00;;;;;;;12.65;4.45;;;18.00;80.80;;;;;;5083318;28;20024;-69
2021/05/08 01:09:27;;;;;;;11.23;4.25;;;18.00;80.60;;;;;;5081137;28;20025;-68
2021/05/08 01:11:55;;;;;;;12.23;4.18;;;18.00;80.60;;;;;;5083402;28;20020;-69
2021/05/08 01:14:22;;;;;;;12.75;4.78;;;18.00;80.40;;;;;;5083547;28;20020;-69
2021/05/08 01:17:29;;;;;;;11.10;4.45;;;18.00;80.40;;;;;;5078807;28;20031;-70
2021/05/08 01:20:35;;;;;;;14.52;5.25;;;18.00;80.10;;;;;;5081252;28;20028;-70
2021/05/08 01:23:41;;;;;;;12.80;4.93;;;17.90;80.00;;;;;;5082411;28;20040;-70
2021/05/08 01:26:47;;;;;;;8.45;4.18;;;17.90;79.90;;;;;;5081644;28;20032;-70
2021/05/08 01:29:53;;;;;;;8.40;3.30;;;17.90;79.80;;;;;;5084434;28;20016;-70
2021/05/08 01:32:59;;;;;;;11.15;3.65;;;17.90;79.80;;;;;;5083885;28;20032;-70
2021/05/08 01:35:30;;;;;;;10.68;3.08;;;17.90;79.80;;;;;;5083152;28;20020;-71
2021/05/08 01:37:57;;;;;;;4.85;2.40;;;17.90;79.90;;;;;;5083882;28;20024;-70
2021/05/08 01:40:42;;;;;;;7.07;2.83;;;17.90;79.90;;;;;;5081052;28;20052;-70
2021/05/08 01:43:09;;;;;;;11.93;3.33;;;17.90;79.90;;;;;;5082139;28;20181;-70
2021/05/08 01:45:35;;;;;;;6.80;2.85;;;17.90;80.00;;;;;;5084363;28;20017;-70
2021/05/08 01:48:04;;;;;;;7.60;2.72;;;17.80;79.90;;;;;;5082098;28;20431;-70
2021/05/08 01:50:31;;;;;;;12.80;3.45;;;17.90;79.90;;;;;;5083668;28;20036;-69
2021/05/08 01:52:57;;;;;;;7.25;2.88;;;17.80;79.70;;;;;;5080692;28;20055;-70
2021/05/08 01:55:26;;;;;;;9.05;4.18;;;17.80;79.80;;;;;;5071510;28;20463;-70
2021/05/08 01:57:55;;;;;;;5.97;3.05;;;17.90;79.70;;;;;;5083450;28;20051;-69
2021/05/08 02:00:33;;;;;;;10.27;3.45;;;17.80;79.60;;;;;;5085696;28;20086;-69
2021/05/08 02:03:00;;;;;;;6.57;2.45;;;17.80;79.50;;;;;;5081058;28;20036;-69
2021/05/08 02:05:29;;;;;;;12.40;4.03;;;17.80;79.50;;;;;;5079852;28;20016;-69
2021/05/08 02:07:56;;;;;;;6.47;3.20;;;17.80;79.40;;;;;;5086679;28;20024;-70
2021/05/08 02:10:22;;;;;;;7.68;3.63;;;17.80;79.20;;;;;;5080085;28;20113;-70
2021/05/08 02:12:49;;;;;;;6.30;2.80;;;17.80;79.20;;;;;;5079773;28;20051;-70
2021/05/08 02:15:17;;;;;;;8.88;4.13;;;17.80;79.10;;;;;;5076800;28;20380;-69
2021/05/08 02:17:44;;;;;;;5.20;2.67;;;17.80;79.70;;;;;;5080173;28;20051;-70
2021/05/08 02:20:20;;;;;;;12.40;3.85;;;17.80;78.90;;;;;;5082647;28;20067;-70
2021/05/08 02:22:47;;;;;;;9.43;3.10;;;17.80;78.80;;;;;;5083154;28;20040;-70
2021/05/08 02:25:14;;;;;;;11.77;3.80;;;17.70;78.80;;;;;;5081748;28;20032;-70
2021/05/08 02:27:42;;;;;;;11.15;3.70;;;17.70;78.70;;;;;;5079762;28;20475;-69
2021/05/08 02:30:12;;;;;;;6.78;3.08;;;17.70;78.60;;;;;;5082488;28;20013;-70
2021/05/08 02:32:38;;;;;;;8.40;5.18;;;17.70;78.50;;;;;;5082038;28;20048;-70
2021/05/08 02:35:08;;;;;;;11.10;5.38;;;17.70;78.40;;;;;;5081125;28;20598;-70
2021/05/08 02:37:36;;;;;;;10.27;4.90;;;17.70;78.30;;;;;;5077711;28;20024;-70
2021/05/08 02:40:06;;;;;;;12.18;4.88;;;17.70;78.30;;;;;;5083554;28;20023;-70
2021/05/08 02:42:33;;;;;;;7.13;3.65;;;17.70;78.30;;;;;;5082019;28;20040;-69
2021/05/08 02:44:59;;;;;;;6.55;3.90;;;17.70;78.30;;;;;;5081971;28;20024;-69
2021/05/08 02:47:26;;;;;;;7.85;4.10;;;17.60;78.20;;;;;;5084679;28;20043;-70
2021/05/08 02:49:56;;;;;;;9.88;3.30;;;17.60;78.10;;;;;;5081215;28;20036;-69
2021/05/08 02:52:23;;;;;;;11.75;4.03;;;17.60;78.10;;;;;;5082281;28;20028;-70
2021/05/08 02:54:50;;;;;;;12.48;3.60;;;17.70;78.20;;;;;;5081826;28;20012;-70
2021/05/08 02:57:17;;;;;;;12.63;3.63;;;17.60;78.20;;;;;;5081017;28;20059;-71
2021/05/08 02:59:44;;;;;;;5.35;2.97;;;17.60;78.20;;;;;;5080483;28;20052;-71
2021/05/08 03:02:10;;;;;;;7.40;3.22;;;17.60;78.10;;;;;;5079925;28;20029;-70
2021/05/08 03:04:37;;;;;;;7.60;2.80;;;17.60;78.10;;;;;;5080674;28;20062;-70
2021/05/08 03:07:04;;;;;;;5.72;2.95;;;17.60;78.10;;;;;;5083763;28;20020;-69
2021/05/08 03:09:31;;;;;;;9.48;3.00;;;17.60;78.00;;;;;;5082184;28;20119;-70
2021/05/08 03:12:00;;;;;;;5.82;2.60;;;17.60;77.90;;;;;;5078179;28;20030;-69
2021/05/08 03:14:26;;;;;;;6.50;2.80;;;17.50;77.80;;;;;;5082104;28;20121;-70
2021/05/08 03:16:53;;;;;;;6.50;2.38;;;17.50;77.70;;;;;;5082131;28;20028;-69
2021/05/08 03:19:19;;;;;;;5.75;2.50;;;17.60;77.70;;;;;;5081768;28;20024;-70
2021/05/08 03:21:46;;;;;;;6.78;2.55;;;17.60;77.70;;;;;;5080232;28;20046;-70
2021/05/08 03:24:13;;;;;;;7.55;2.45;;;17.50;77.60;;;;;;5077374;28;20294;-70
2021/05/08 03:26:39;;;;;;;5.18;2.13;;;17.50;77.60;;;;;;5080785;28;20091;-69
2021/05/08 03:29:06;;;;;;;4.15;2.22;;;17.50;77.50;;;;;;5080339;28;20023;-71
2021/05/08 03:31:33;;;;;;;6.93;1.85;;;17.50;77.50;;;;;;5085532;28;20039;-69
2021/05/08 03:34:00;;;;;;;6.78;2.88;;;17.50;77.50;;;;;;5080805;28;20027;-70
2021/05/08 03:36:27;;;;;;;6.75;2.13;;;17.50;77.40;;;;;;5081144;28;20608;-70
2021/05/08 03:38:54;;;;;;;7.90;2.50;;;17.50;77.40;;;;;;5080521;28;20042;-69
2021/05/08 03:41:21;;;;;;;4.45;2.30;;;17.50;77.40;;;;;;5080792;28;20471;-70
2021/05/08 03:43:48;;;;;;;13.20;9.55;;;17.50;77.30;;;;;;5081387;28;20039;-69
2021/05/08 03:46:15;;;;;;;17.88;11.18;;;17.50;77.30;;;;;;5076131;28;20020;-70
2021/05/08 03:48:42;;;;;;;13.95;9.23;;;17.50;77.30;;;;;;5081518;28;20107;-70
2021/05/08 03:51:08;;;;;;;12.23;7.57;;;17.50;77.30;;;;;;5081689;28;20704;-71
2021/05/08 03:53:35;;;;;;;11.45;5.47;;;17.50;77.30;;;;;;5080811;28;20017;-70
2021/05/08 03:56:02;;;;;;;9.02;4.75;;;17.40;77.20;;;;;;5081860;28;20020;-71
2021/05/08 03:58:30;;;;;;;7.15;3.67;;;17.40;77.20;;;;;;5080310;28;20024;-71
2021/05/08 04:00:58;;;;;;;9.40;3.47;;;17.50;77.30;;;;;;5081485;28;20031;-70
2021/05/08 04:03:26;;;;;;;6.97;2.97;;;17.40;77.20;;;;;;5078523;28;20039;-70
2021/05/08 04:05:53;;;;;;;6.30;3.55;;;17.40;77.20;;;;;;5083409;28;20048;-70
2021/05/08 04:08:20;;;;;;;7.95;3.35;;;17.40;77.20;;;;;;5081873;28;20020;-70
2021/05/08 04:10:48;;;;;;;5.70;2.50;;;17.40;77.30;;;;;;5079217;28;20028;-69
2021/05/08 04:13:15;;;;;;;6.22;3.78;;;17.40;77.20;;;;;;5077778;28;20041;-70
2021/05/08 04:15:43;;;;;;;5.35;2.72;;;17.40;77.10;;;;;;5080882;28;20020;-70
2021/05/08 04:18:50;;;;;;;6.60;2.50;;;17.40;77.00;;;;;;5078470;28;20031;-70
2021/05/08 04:21:56;;;;;;;12.38;6.50;;;17.30;76.90;;;;;;5081827;28;20479;-70
2021/05/08 04:25:02;;;;;;;11.30;6.30;;;17.40;76.80;;;;;;5078690;28;20123;-70
2021/05/08 04:28:08;;;;;;;10.88;6.70;;;17.40;76.60;;;;;;5080668;28;20021;-71
2021/05/08 04:31:15;;;;;;;10.60;4.88;;;17.30;76.50;;;;;;5078357;28;20036;-70
2021/05/08 04:34:21;;;;;;;9.80;3.72;;;17.40;76.50;;;;;;5073907;28;20106;-69
2021/05/08 04:37:43;;;;;;;9.70;3.20;;;17.40;76.50;;;;;;5078243;28;20054;-71
2021/05/08 04:40:49;;;;;;;11.02;4.90;;;17.40;76.40;;;;;;5075776;28;20397;-68
2021/05/08 04:43:16;;;;;;;7.85;4.07;;;17.30;76.40;;;;;;5074899;28;20044;-69
2021/05/08 04:45:42;;;;;;;20.02;9.00;;;17.30;76.50;;;;;;5077905;28;20039;-68
2021/05/08 04:48:09;;;;;;;22.17;10.63;;;17.30;76.40;;;;;;5079415;28;20078;-71
2021/05/08 04:50:36;;;;;;;16.85;10.98;;;17.30;76.50;;;;;;5078738;28;20498;-71
2021/05/08 04:53:03;;;;;;;15.63;8.77;;;17.30;76.50;;;;;;5079585;28;20035;-71
2021/05/08 04:55:29;;;;;;;10.05;6.40;;;17.30;76.60;;;;;;5078530;28;20044;-70
2021/05/08 04:58:06;;;;;;;9.80;6.57;;;17.30;76.50;;;;;;5079294;28;20092;-71
2021/05/08 05:00:33;;;;;;;9.13;4.22;;;17.30;76.60;;;;;;5078411;28;20024;-72
2021/05/08 05:02:59;;;;;;;9.95;4.97;;;17.30;76.70;;;;;;5080643;28;20062;-70
2021/05/08 05:05:26;;;;;;;22.17;13.00;;;17.30;76.80;;;;;;5078600;28;20023;-70
2021/05/08 05:07:52;;;;;;;36.25;26.90;;;17.20;76.80;;;;;;5080943;28;20025;-70
2021/05/08 05:10:19;;;;;;;32.85;22.98;;;17.30;76.90;;;;;;5081957;28;20039;-71
2021/05/08 05:12:46;;;;;;;23.73;15.93;;;17.20;76.90;;;;;;5074688;28;20166;-69
2021/05/08 05:15:16;;;;;;;17.27;11.63;;;17.20;77.10;;;;;;5073976;28;20024;-69
2021/05/08 05:17:43;;;;;;;14.05;10.13;;;17.20;77.20;;;;;;5076877;28;20503;-70
2021/05/08 05:20:11;;;;;;;16.33;8.15;;;17.20;77.30;;;;;;5075148;28;20018;-70
2021/05/08 05:22:38;;;;;;;10.48;5.90;;;17.20;77.40;;;;;;5071965;28;20379;-70
2021/05/08 05:25:06;;;;;;;12.05;5.38;;;17.20;77.50;;;;;;5074284;28;20113;-69
2021/05/08 05:27:34;;;;;;;9.45;4.50;;;17.20;77.70;;;;;;5076481;28;20024;-70
2021/05/08 05:30:01;;;;;;;14.00;4.32;;;17.20;77.90;;;;;;5075294;28;20012;-71
2021/05/08 05:32:28;;;;;;;7.13;3.42;;;17.20;77.90;;;;;;5073077;28;20045;-72
2021/05/08 05:34:54;;;;;;;7.05;3.22;;;17.20;78.00;;;;;;5076955;28;20567;-69
2021/05/08 05:37:21;;;;;;;9.95;3.88;;;17.20;78.10;;;;;;5076180;28;20472;-71
2021/05/08 05:39:48;;;;;;;11.13;3.30;;;17.20;78.20;;;;;;5078304;28;20032;-69
2021/05/08 05:42:16;;;;;;;7.65;2.65;;;17.20;78.30;;;;;;5080295;28;20043;-70
2021/05/08 05:44:43;;;;;;;15.23;8.43;;;17.20;78.40;;;;;;5079282;28;20025;-71
2021/05/08 05:47:20;;;;;;;21.05;16.52;;;17.20;78.60;;;;;;5078858;28;20024;-71
2021/05/08 05:49:48;;;;;;;33.83;25.23;;;17.20;78.70;;;;;;5078842;28;20135;-71
2021/05/08 05:52:15;;;;;;;29.23;20.65;;;17.20;78.90;;;;;;5075484;28;20024;-71
2021/05/08 05:54:49;;;;;;;19.20;15.55;;;17.20;79.00;;;;;;5080212;28;20103;-70
2021/05/08 05:57:16;;;;;;;19.38;11.27;;;17.20;79.30;;;;;;5077786;28;20020;-72
2021/05/08 05:59:43;;;;;;;17.67;8.85;;;17.20;79.50;;;;;;5076685;28;20025;-73
2021/05/08 06:02:11;;;;;;;13.52;5.68;;;17.20;79.70;;;;;;5082912;28;20062;-70
2021/05/08 06:04:37;;;;;;;11.73;5.20;;;17.20;80.80;;;;;;5084885;28;20017;-71
2021/05/08 06:07:04;;;;;;;11.02;5.50;;;17.20;81.10;;;;;;5081206;28;20019;-71
2021/05/08 06:09:31;;;;;;;12.05;4.57;;;17.20;81.40;;;;;;5084363;28;20074;-70
2021/05/08 06:11:59;;;;;;;11.38;4.28;;;17.20;81.40;;;;;;5081623;28;20019;-70
2021/05/08 06:14:27;;;;;;;12.77;4.55;;;17.20;81.40;;;;;;5084894;28;20024;-70
2021/05/08 06:16:56;;;;;;;7.38;4.10;;;17.20;81.40;;;;;;5080497;28;20053;-69
2021/05/08 06:19:26;;;;;;;16.45;5.13;;;17.20;81.50;;;;;;5083844;28;20058;-72
2021/05/08 06:21:53;;;;;;;11.93;4.57;;;17.20;81.60;;;;;;5080096;28;20049;-73
2021/05/08 06:24:20;;;;;;;12.25;5.03;;;17.30;81.70;;;;;;5079855;28;20015;-72
2021/05/08 06:26:47;;;;;;;28.88;17.45;;;17.30;82.50;;;;;;5081709;28;20016;-71
2021/05/08 06:29:13;;;;;;;21.10;14.43;;;17.30;82.10;;;;;;5081019;28;20042;-71
2021/05/08 06:31:40;;;;;;;18.30;11.45;;;17.20;82.40;;;;;;5083387;28;20093;-70
2021/05/08 06:34:06;;;;;;;14.35;9.70;;;17.30;82.70;;;;;;5078489;28;20058;-70
2021/05/08 06:36:33;;;;;;;16.45;9.15;;;17.20;82.70;;;;;;5083375;28;20066;-71
2021/05/08 06:39:00;;;;;;;18.40;8.02;;;17.30;82.80;;;;;;5079747;28;20107;-71
2021/05/08 06:41:26;;;;;;;13.02;6.85;;;17.30;82.80;;;;;;5081839;28;20016;-71
2021/05/08 06:43:53;;;;;;;21.52;6.72;;;17.30;82.70;;;;;;5078501;28;20024;-73
2021/05/08 06:46:20;;;;;;;13.77;7.28;;;17.30;82.70;;;;;;5080518;28;20021;-74
2021/05/08 06:48:46;;;;;;;13.73;7.30;;;17.30;82.60;;;;;;5079187;28;20514;-73
2021/05/08 06:51:13;;;;;;;10.27;6.38;;;17.30;82.60;;;;;;5080382;28;20020;-71
2021/05/08 06:53:40;;;;;;;9.10;5.47;;;17.40;82.70;;;;;;5080839;28;20028;-71
2021/05/08 06:56:07;;;;;;;13.07;5.90;;;17.30;82.70;;;;;;5082672;28;20019;-70
2021/05/08 06:58:34;;;;;;;9.05;4.85;;;17.40;82.80;;;;;;5078109;28;20056;-70
2021/05/08 07:01:00;;;;;;;12.90;6.25;;;17.40;82.90;;;;;;5080101;28;20032;-71
2021/05/08 07:03:27;;;;;;;13.10;6.50;;;17.40;83.00;;;;;;5083141;28;20040;-71
2021/05/08 07:05:54;;;;;;;15.73;5.10;;;17.40;83.00;;;;;;5079564;28;20025;-71
2021/05/08 07:08:20;;;;;;;12.70;5.90;;;17.50;83.20;;;;;;5077760;28;20035;-71
2021/05/08 07:10:52;;;;;;;11.25;6.72;;;17.40;83.20;;;;;;5082208;28;20027;-70
2021/05/08 07:13:19;;;;;;;8.50;4.82;;;17.50;83.30;;;;;;5079983;28;20028;-70
2021/05/08 07:15:45;;;;;;;9.10;6.20;;;17.50;83.40;;;;;;5079240;28;20024;-71
2021/05/08 07:18:12;;;;;;;14.15;5.15;;;17.50;83.50;;;;;;5083668;28;20102;-71
2021/05/08 07:20:40;;;;;;;10.63;5.72;;;17.40;83.50;;;;;;5078503;28;20416;-71
2021/05/08 07:23:08;;;;;;;11.88;5.38;;;17.50;83.60;;;;;;5079650;28;20070;-70
2021/05/08 07:25:37;;;;;;;13.68;4.97;;;17.50;83.60;;;;;;5081748;28;20025;-71
2021/05/08 07:28:19;;;;;;;14.50;5.38;;;17.50;83.70;;;;;;5081811;28;20047;-71
2021/05/08 07:30:47;;;;;;;12.75;5.97;;;17.50;83.80;;;;;;5078079;28;20057;-70
2021/05/08 07:33:15;;;;;;;15.75;6.20;;;17.50;84.00;;;;;;5079417;28;20201;-71
2021/05/08 07:35:43;;;;;;;12.93;5.55;;;17.50;84.00;;;;;;5080861;28;20086;-70
2021/05/08 07:38:10;;;;;;;12.93;6.22;;;17.60;84.20;;;;;;5078639;28;20016;-71
2021/05/08 07:40:39;;;;;;;11.25;5.47;;;17.60;84.40;;;;;;5082018;28;20015;-71
2021/05/08 07:43:07;;;;;;;13.30;4.85;;;17.60;84.50;;;;;;5081124;28;20163;-70
2021/05/08 07:45:34;;;;;;;9.80;5.45;;;17.60;84.60;;;;;;5081866;28;20061;-71
2021/05/08 07:48:01;;;;;;;13.15;5.13;;;17.70;84.80;;;;;;5078309;28;20057;-70
2021/05/08 07:51:07;;;;;;;10.38;4.22;;;17.70;84.80;;;;;;5074782;28;20031;-71
2021/05/08 07:54:13;;;;;;;10.32;4.30;;;17.70;84.90;;;;;;5077090;28;20031;-72
2021/05/08 07:57:19;;;;;;;12.88;4.78;;;17.80;84.90;;;;;;5079147;28;20047;-70
2021/05/08 08:00:25;;;;;;;14.52;4.35;;;17.80;85.00;;;;;;5079965;28;20479;-71
2021/05/08 08:03:31;;;;;;;7.82;4.50;;;17.80;85.00;;;;;;5082070;28;20470;-70
2021/05/08 08:06:38;;;;;;;11.93;4.45;;;17.80;85.30;;;;;;5078972;28;20027;-71
2021/05/08 08:09:44;;;;;;;13.77;6.13;;;17.90;85.00;;;;;;5079329;28;20039;-71
2021/05/08 08:12:51;;;;;;;6.57;4.50;;;18.00;84.90;;;;;;5079685;28;20475;-70
2021/05/08 08:15:57;;;;;;;11.77;4.43;;;18.00;84.90;;;;;;5078963;28;20352;-71
2021/05/08 08:19:03;;;;;;;15.38;5.35;;;18.00;84.90;;;;;;5077595;28;20032;-70
2021/05/08 08:22:09;;;;;;;10.48;5.88;;;18.10;84.80;;;;;;5078984;28;20051;-70
2021/05/08 08:25:15;;;;;;;9.23;4.05;;;18.10;84.70;;;;;;5080054;28;20040;-70
2021/05/08 08:28:21;;;;;;;8.48;5.13;;;18.20;84.70;;;;;;5078606;28;20017;-70
2021/05/08 08:31:28;;;;;;;11.20;4.70;;;18.20;84.60;;;;;;5081015;28;20611;-71
2021/05/08 08:33:54;;;;;;;11.32;4.32;;;18.20;84.50;;;;;;5077193;28;20024;-71
2021/05/08 08:36:21;;;;;;;7.10;4.00;;;18.30;84.50;;;;;;5077990;28;20008;-70
2021/05/08 08:38:47;;;;;;;9.88;4.25;;;18.30;84.40;;;;;;5079270;28;20075;-68
2021/05/08 08:41:16;;;;;;;11.85;4.65;;;18.40;84.50;;;;;;5078991;28;20022;-70
2021/05/08 08:43:46;;;;;;;11.48;6.40;;;18.40;84.50;;;;;;5073415;28;20393;-70
2021/05/08 08:46:17;;;;;;;18.30;8.05;;;18.40;84.60;;;;;;5080271;28;20419;-70
2021/05/08 08:48:44;;;;;;;12.43;7.28;;;18.50;84.70;;;;;;5076227;28;20028;-69
2021/05/08 08:51:14;;;;;;;32.25;8.60;;;18.50;84.80;;;;;;5080368;28;20058;-70
2021/05/08 08:53:40;;;;;;;46.72;9.88;;;18.50;84.70;;;;;;5078339;28;20036;-70
2021/05/08 08:56:08;;;;;;;20.23;6.95;;;18.60;84.70;;;;;;5075357;28;20103;-70
2021/05/08 08:58:37;;;;;;;16.50;5.90;;;18.60;84.60;;;;;;5081650;28;20008;-68
2021/05/08 09:01:05;;;;;;;18.25;7.22;;;18.60;84.40;;;;;;5080586;28;20430;-69
2021/05/08 09:03:35;;;;;;;19.77;6.82;;;18.70;84.30;;;;;;5080353;28;20064;-69
2021/05/08 09:06:02;;;;;;;15.88;5.80;;;18.70;84.20;;;;;;5077199;28;20016;-68
2021/05/08 09:08:31;;;;;;;25.67;12.32;;;18.80;84.40;;;;;;5082455;28;20452;-69
2021/05/08 09:11:17;;;;;;;20.05;8.35;;;18.80;84.10;;;;;;5080251;28;20089;-71
2021/05/08 09:13:44;;;;;;;17.38;7.32;;;18.90;83.90;;;;;;5085368;28;20360;-71
2021/05/08 09:16:10;;;;;;;14.77;6.75;;;18.90;83.90;;;;;;5083570;28;20091;-70
2021/05/08 09:18:39;;;;;;;10.82;6.55;;;19.00;83.80;;;;;;5082141;28;20109;-70
2021/05/08 09:21:08;;;;;;;13.48;6.22;;;19.00;83.60;;;;;;5083028;28;20023;-70
2021/05/08 09:23:40;;;;;;;12.05;5.97;;;19.10;83.50;;;;;;5083243;28;20033;-69
2021/05/08 09:26:14;;;;;;;12.98;5.75;;;19.10;83.20;;;;;;5083441;28;20081;-69
2021/05/08 09:28:52;;;;;;;11.15;5.60;;;19.20;83.00;;;;;;5081816;28;20070;-69
2021/05/08 09:31:18;;;;;;;11.75;5.05;;;19.20;82.90;;;;;;5081712;28;20071;-69
2021/05/08 09:33:52;;;;;;;8.95;3.33;;;19.20;82.50;;;;;;5083688;28;20020;-69
2021/05/08 09:36:19;;;;;;;5.63;2.50;;;19.30;80.70;;;;;;5081204;28;20467;-67
2021/05/08 09:38:46;;;;;;;5.50;2.45;;;19.30;79.80;;;;;;5082281;28;20402;-68
2021/05/08 09:41:15;;;;;;;8.32;2.10;;;19.30;78.30;;;;;;5079955;28;20073;-68
2021/05/08 09:43:43;;;;;;;8.02;2.42;;;19.20;78.20;;;;;;5079902;28;20487;-68
2021/05/08 09:46:24;;;;;;;13.70;2.53;;;19.20;78.90;;;;;;5081795;28;20024;-68
2021/05/08 09:49:09;;;;;;;5.15;2.03;;;19.20;79.40;;;;;;5082604;28;20024;-69
2021/05/08 09:51:36;;;;;;;9.20;3.15;;;19.10;79.60;;;;;;5083141;28;20036;-69
2021/05/08 09:54:14;;;;;;;7.15;3.08;;;19.20;79.10;;;;;;5078544;28;20479;-68
2021/05/08 09:56:46;;;;;;;7.93;4.38;;;19.30;79.10;;;;;;5082162;28;20028;-68
2021/05/08 09:59:34;;;;;;;8.80;3.47;;;19.40;79.90;;;;;;5082313;28;20020;-68
2021/05/08 10:02:03;;;;;;;11.70;3.10;;;19.40;78.30;;;;;;5079616;28;20510;-68
2021/05/08 10:04:34;;;;;;;9.57;3.97;;;19.50;78.10;;;;;;5081786;28;20027;-68
2021/05/08 10:07:24;;;;;;;11.18;3.33;;;19.50;78.40;;;;;;5078910;28;20024;-74
2021/05/08 10:09:52;;;;;;;7.70;3.15;;;19.60;78.20;;;;;;5081993;28;20036;-68
2021/05/08 10:12:21;;;;;;;7.25;2.58;;;19.70;77.90;;;;;;5079259;28;20525;-68
2021/05/08 10:14:49;;;;;;;9.40;2.70;;;19.70;77.10;;;;;;5079056;28;20024;-68
2021/05/08 10:17:25;;;;;;;5.90;2.60;;;19.80;77.10;;;;;;5078666;28;20429;-68
2021/05/08 10:20:13;;;;;;;10.40;3.28;;;19.80;77.60;;;;;;5082044;28;20032;-68
2021/05/08 10:22:39;;;;;;;6.10;2.47;;;19.70;77.40;;;;;;5083836;28;20048;-69
2021/05/08 10:25:07;;;;;;;4.85;2.00;;;19.70;77.50;;;;;;5083530;28;20360;-69
2021/05/08 10:27:33;;;;;;;6.93;2.92;;;19.80;77.40;;;;;;5080183;28;20098;-68
2021/05/08 10:30:00;;;;;;;12.05;2.65;;;19.80;76.90;;;;;;5078154;28;20026;-70
2021/05/08 10:32:29;;;;;;;11.35;2.67;;;19.80;76.80;;;;;;5079175;28;20043;-68
2021/05/08 10:35:02;;;;;;;8.23;2.72;;;19.90;76.90;;;;;;5085725;28;20017;-69
2021/05/08 10:37:30;;;;;;;14.77;8.60;;;19.90;76.40;;;;;;5078357;28;20091;-69
2021/05/08 10:40:02;;;;;;;5.10;2.05;;;20.00;76.20;;;;;;5080147;28;20036;-70
2021/05/08 10:42:32;;;;;;;7.90;2.15;;;20.00;75.30;;;;;;5079975;28;20028;-69
2021/05/08 10:45:00;;;;;;;6.00;2.30;;;20.10;74.90;;;;;;5083994;28;20029;-69
2021/05/08 10:47:59;;;;;;;7.88;2.42;;;20.20;75.00;;;;;;5076785;28;20036;-70
2021/05/08 10:50:37;;;;;;;6.70;2.47;;;20.20;75.20;;;;;;5077788;28;20133;-69
2021/05/08 10:53:08;;;;;;;6.20;2.35;;;20.40;74.70;;;;;;5080853;28;20027;-69
2021/05/08 10:55:51;;;;;;;6.35;2.58;;;20.50;73.80;;;;;;5082279;28;20107;-68
2021/05/08 10:58:18;;;;;;;12.00;9.57;;;20.60;72.90;;;;;;5080262;28;20021;-68
2021/05/08 11:00:59;;;;;;;9.85;5.22;;;20.60;72.40;;;;;;5079436;28;20024;-69
2021/05/08 11:03:48;;;;;;;5.63;2.38;;;20.70;72.50;;;;;;5081983;28;20039;-70
2021/05/08 11:06:16;;;;;;;4.15;2.00;;;20.80;72.40;;;;;;5066698;28;20102;-69
2021/05/08 11:09:23;;;;;;;8.73;3.15;;;20.90;72.20;;;;;;5078049;28;20028;-68
2021/05/08 11:12:29;;;;;;;8.73;2.05;;;20.90;72.60;;;;;;5080006;28;20043;-70
2021/05/08 11:15:35;;;;;;;20.48;7.40;;;21.00;72.80;;;;;;5081421;28;20101;-68
2021/05/08 11:18:30;;;;;;;12.70;3.60;;;21.00;72.60;;;;;;5081984;28;20040;-70
2021/05/08 11:21:17;;;;;;;8.23;3.20;;;21.00;72.40;;;;;;5079899;28;20020;-69
2021/05/08 11:23:50;;;;;;;12.05;2.45;;;21.00;72.60;;;;;;5062751;28;20407;-70
2021/05/08 11:29:37;;;;;;;7.35;2.03;;;21.20;72.70;;;;;;5081442;28;20060;-71
2021/05/08 11:32:44;;;;;;;10.65;3.05;;;21.30;72.40;;;;;;5078799;28;20440;-70
2021/05/08 11:35:50;;;;;;;7.03;2.40;;;21.40;71.60;;;;;;5081938;28;20020;-70
2021/05/08 11:38:59;;;;;;;16.73;11.32;;;21.50;70.40;;;;;;5081509;28;20079;-70
2021/05/08 11:42:05;;;;;;;12.13;3.80;;;21.60;70.60;;;;;;5080475;28;20028;-70
2021/05/08 11:45:14;;;;;;;7.28;2.13;;;21.70;70.60;;;;;;5083626;28;20152;-71
2021/05/08 11:48:20;;;;;;;6.93;2.53;;;21.70;70.60;;;;;;5082709;28;20078;-70
2021/05/08 11:51:26;;;;;;;6.53;2.05;;;21.70;70.50;;;;;;5080959;28;20028;-70
2021/05/08 11:54:47;;;;;;;96.82;86.72;;;21.80;69.70;;;;;;5081863;28;20040;-69
2021/05/08 11:57:49;;;;;;;7.65;3.72;;;21.90;69.20;;;;;;5079145;28;20036;-70
2021/05/08 12:00:59;;;;;;;7.75;2.90;;;22.00;68.70;;;;;;5082551;28;20083;-70
2021/05/08 12:04:14;;;;;;;4.00;1.48;;;22.10;68.30;;;;;;5082596;28;20172;-68
2021/05/08 12:07:22;;;;;;;3.53;1.65;;;22.30;67.10;;;;;;5081173;28;20089;-69
2021/05/08 12:10:11;;;;;;;3.10;1.20;;;22.30;64.90;;;;;;5077733;28;20078;-68
2021/05/08 12:13:24;;;;;;;8.32;1.70;;;22.30;65.00;;;;;;5082812;28;20025;-69
2021/05/08 12:16:30;;;;;;;9.27;6.07;;;22.40;65.30;;;;;;5080026;28;20024;-68
2021/05/08 12:19:36;;;;;;;13.23;3.50;;;22.40;65.10;;;;;;5082743;28;20024;-69
2021/05/08 12:22:42;;;;;;;14.75;3.40;;;22.30;67.30;;;;;;5076430;28;20107;-72
2021/05/08 12:25:57;;;;;;;6.53;2.67;;;22.10;69.00;;;;;;5079663;28;20494;-73
2021/05/08 12:28:43;;;;;;;4.78;1.40;;;22.00;69.50;;;;;;5069637;28;20980;-71
2021/05/08 12:32:04;;;;;;;3.75;1.20;;;22.00;68.70;;;;;;5081939;28;20054;-71
2021/05/08 12:35:10;;;;;;;9.20;6.40;;;22.00;67.50;;;;;;5078191;28;20052;-72
2021/05/08 12:38:20;;;;;;;5.53;1.80;;;22.00;66.00;;;;;;5081267;28;20032;-73
2021/05/08 12:41:24;;;;;;;3.10;1.45;;;21.90;65.30;;;;;;5079819;28;20043;-72
2021/05/08 12:44:14;;;;;;;5.13;1.20;;;21.70;65.30;;;;;;5081600;28;20090;-72
2021/05/08 12:47:03;;;;;;;3.70;2.00;;;21.60;66.10;;;;;;5085178;28;20028;-72
2021/05/08 12:49:32;;;;;;;4.80;1.95;;;21.50;67.40;;;;;;5086624;28;20034;-72
2021/05/08 12:52:22;;;;;;;4.68;1.90;;;21.40;68.00;;;;;;5085521;28;20015;-72
2021/05/08 12:54:50;;;;;;;3.17;2.38;;;21.20;68.70;;;;;;5086388;28;20433;-72
2021/05/08 12:57:17;;;;;;;6.15;1.35;;;21.20;69.30;;;;;;5082568;28;20024;-73
2021/05/08 12:59:57;;;;;;;7.75;1.98;;;21.10;69.70;;;;;;5082896;28;20024;-71
2021/05/08 13:02:26;;;;;;;5.70;1.83;;;21.10;69.80;;;;;;5089473;28;20032;-71
2021/05/08 13:04:54;;;;;;;4.55;2.15;;;21.10;69.40;;;;;;5071301;28;20055;-71
2021/05/08 13:07:23;;;;;;;7.18;2.13;;;21.10;69.70;;;;;;5082778;28;20025;-71
2021/05/08 13:10:12;;;;;;;8.55;1.35;;;21.00;69.10;;;;;;5088042;28;20059;-73
2021/05/08 13:12:39;;;;;;;4.53;1.90;;;20.90;69.40;;;;;;5083931;28;20386;-72
2021/05/08 13:15:13;;;;;;;19.30;6.32;;;21.00;70.10;;;;;;5085963;28;20564;-73
2021/05/08 13:17:40;;;;;;;13.77;10.75;;;21.00;69.50;;;;;;5084713;28;20414;-73
2021/05/08 13:20:07;;;;;;;7.57;2.47;;;21.00;69.20;;;;;;5086808;28;20054;-73
2021/05/08 13:22:38;;;;;;;7.15;2.05;;;21.10;69.10;;;;;;5085744;28;20118;-73
2021/05/08 13:25:06;;;;;;;2.72;1.75;;;21.00;68.90;;;;;;5085461;28;20058;-72
2021/05/08 13:27:32;;;;;;;6.18;1.98;;;21.00;69.20;;;;;;5087380;28;20098;-73